sensor_id;sensor_type;location;lat;lon;timestamp;P1;durP1;ratioP1;P2;durP2;ratioP2
43048;SDS011;28673;44.412;11.918;2023-02-01T00:01:47;69.82;;;37.17;;
43048;SDS011;28673;44.412;11.918;2023-02-01T00:04:12;74.93;;;37.45;;
43048;SDS011;28673;44.412;11.918;2023-02-01T00:06:38;67.63;;;35.58;;
43048;SDS011;28673;44.412;11.918;2023-02-01T00:09:04;73.53;;;35.90;;
43048;SDS011;28673;44.412;11.918;2023-02-01T00:11:30;70.95;;;36.72;;
43048;SDS011;28673;44.412;11.918;2023-02-01T00:13:56;69.05;;;35.03;;
43048;SDS011;28673;44.412;11.918;2023-02-01T00:16:26;77.53;;;40.00;;
43048;SDS011;28673;44.412;11.918;2023-02-01T00:19:04;76.28;;;36.67;;
43048;SDS011;28673;44.412;11.918;2023-02-01T00:21:32;66.35;;;33.40;;
43048;SDS011;28673;44.412;11.918;2023-02-01T00:23:58;64.85;;;35.53;;
43048;SDS011;28673;44.412;11.918;2023-02-01T00:26:37;69.18;;;34.63;;
43048;SDS011;28673;44.412;11.918;2023-02-01T00:29:06;72.43;;;35.03;;
43048;SDS011;28673;44.412;11.918;2023-02-01T00:31:42;72.75;;;36.50;;
43048;SDS011;28673;44.412;11.918;2023-02-01T00:34:13;67.35;;;34.47;;
43048;SDS011;28673;44.412;11.918;2023-02-01T00:36:41;75.00;;;34.65;;
43048;SDS011;28673;44.412;11.918;2023-02-01T00:39:08;68.72;;;34.65;;
43048;SDS011;28673;44.412;11.918;2023-02-01T00:41:34;72.35;;;35.85;;
43048;SDS011;28673;44.412;11.918;2023-02-01T00:44:00;68.07;;;34.47;;
43048;SDS011;28673;44.412;11.918;2023-02-01T00:46:26;61.60;;;33.67;;
43048;SDS011;28673;44.412;11.918;2023-02-01T00:48:53;66.57;;;35.25;;
43048;SDS011;28673;44.412;11.918;2023-02-01T00:51:21;60.80;;;32.97;;
43048;SDS011;28673;44.412;11.918;2023-02-01T00:53:48;65.82;;;35.90;;
43048;SDS011;28673;44.412;11.918;2023-02-01T00:56:14;66.25;;;31.83;;
43048;SDS011;28673;44.412;11.918;2023-02-01T00:58:41;65.95;;;32.40;;
43048;SDS011;28673;44.412;11.918;2023-02-01T01:01:17;76.20;;;35.35;;
43048;SDS011;28673;44.412;11.918;2023-02-01T01:03:49;67.90;;;34.15;;
43048;SDS011;28673;44.412;11.918;2023-02-01T01:06:27;70.80;;;35.70;;
43048;SDS011;28673;44.412;11.918;2023-02-01T01:08:56;66.72;;;32.90;;
43048;SDS011;28673;44.412;11.918;2023-02-01T01:11:27;64.57;;;32.95;;
43048;SDS011;28673;44.412;11.918;2023-02-01T01:13:56;60.08;;;32.92;;
43048;SDS011;28673;44.412;11.918;2023-02-01T01:16:23;66.97;;;32.47;;
43048;SDS011;28673;44.412;11.918;2023-02-01T01:18:51;70.72;;;32.63;;
43048;SDS011;28673;44.412;11.918;2023-02-01T01:21:18;70.35;;;33.13;;
43048;SDS011;28673;44.412;11.918;2023-02-01T01:23:44;68.28;;;34.03;;
43048;SDS011;28673;44.412;11.918;2023-02-01T01:26:16;66.35;;;32.13;;
43048;SDS011;28673;44.412;11.918;2023-02-01T01:28:44;61.75;;;30.10;;
43048;SDS011;28673;44.412;11.918;2023-02-01T01:31:10;65.35;;;31.63;;
43048;SDS011;28673;44.412;11.918;2023-02-01T01:33:37;61.17;;;31.70;;
43048;SDS011;28673;44.412;11.918;2023-02-01T01:36:07;66.32;;;31.90;;
43048;SDS011;28673;44.412;11.918;2023-02-01T01:38:38;64.70;;;30.15;;
43048;SDS011;28673;44.412;11.918;2023-02-01T01:41:05;64.53;;;30.73;;
43048;SDS011;28673;44.412;11.918;2023-02-01T01:43:46;59.50;;;29.98;;
43048;SDS011;28673;44.412;11.918;2023-02-01T01:46:26;61.95;;;32.33;;
43048;SDS011;28673;44.412;11.918;2023-02-01T01:48:56;68.88;;;33.78;;
43048;SDS011;28673;44.412;11.918;2023-02-01T01:51:28;57.08;;;30.77;;
43048;SDS011;28673;44.412;11.918;2023-02-01T01:53:58;55.03;;;30.95;;
43048;SDS011;28673;44.412;11.918;2023-02-01T01:56:29;65.97;;;32.17;;
43048;SDS011;28673;44.412;11.918;2023-02-01T01:58:58;71.70;;;33.15;;
43048;SDS011;28673;44.412;11.918;2023-02-01T02:01:25;64.97;;;32.80;;
43048;SDS011;28673;44.412;11.918;2023-02-01T02:03:52;61.15;;;32.08;;
43048;SDS011;28673;44.412;11.918;2023-02-01T02:06:23;59.00;;;31.95;;
43048;SDS011;28673;44.412;11.918;2023-02-01T02:09:00;72.07;;;33.25;;
43048;SDS011;28673;44.412;11.918;2023-02-01T02:11:26;66.30;;;32.42;;
43048;SDS011;28673;44.412;11.918;2023-02-01T02:13:53;57.88;;;30.45;;
43048;SDS011;28673;44.412;11.918;2023-02-01T02:36:07;80.95;;;33.80;;
43048;SDS011;28673;44.412;11.918;2023-02-01T02:47:11;71.65;;;33.63;;
43048;SDS011;28673;44.412;11.918;2023-02-01T02:52:48;71.20;;;32.92;;
43048;SDS011;28673;44.412;11.918;2023-02-01T02:55:40;64.43;;;31.15;;
43048;SDS011;28673;44.412;11.918;2023-02-01T02:58:08;66.82;;;31.15;;
43048;SDS011;28673;44.412;11.918;2023-02-01T03:00:54;63.35;;;31.00;;
43048;SDS011;28673;44.412;11.918;2023-02-01T03:03:40;64.22;;;32.00;;
43048;SDS011;28673;44.412;11.918;2023-02-01T03:06:37;67.57;;;33.35;;
43048;SDS011;28673;44.412;11.918;2023-02-01T03:09:31;62.10;;;33.08;;
43048;SDS011;28673;44.412;11.918;2023-02-01T03:12:01;64.68;;;31.40;;
43048;SDS011;28673;44.412;11.918;2023-02-01T03:14:50;60.75;;;30.25;;
43048;SDS011;28673;44.412;11.918;2023-02-01T03:17:27;66.05;;;32.28;;
43048;SDS011;28673;44.412;11.918;2023-02-01T03:20:17;59.42;;;29.95;;
43048;SDS011;28673;44.412;11.918;2023-02-01T03:23:05;68.05;;;32.15;;
43048;SDS011;28673;44.412;11.918;2023-02-01T03:25:51;59.55;;;31.02;;
43048;SDS011;28673;44.412;11.918;2023-02-01T03:28:57;67.93;;;32.05;;
43048;SDS011;28673;44.412;11.918;2023-02-01T03:34:15;65.47;;;30.48;;
43048;SDS011;28673;44.412;11.918;2023-02-01T03:36:44;67.97;;;33.15;;
43048;SDS011;28673;44.412;11.918;2023-02-01T03:39:34;58.97;;;32.42;;
43048;SDS011;28673;44.412;11.918;2023-02-01T03:42:03;66.93;;;32.60;;
43048;SDS011;28673;44.412;11.918;2023-02-01T03:47:25;54.22;;;29.00;;
43048;SDS011;28673;44.412;11.918;2023-02-01T03:52:30;68.63;;;32.20;;
43048;SDS011;28673;44.412;11.918;2023-02-01T03:57:52;65.43;;;32.33;;
43048;SDS011;28673;44.412;11.918;2023-02-01T04:03:54;67.93;;;31.77;;
43048;SDS011;28673;44.412;11.918;2023-02-01T04:06:21;55.78;;;30.58;;
43048;SDS011;28673;44.412;11.918;2023-02-01T04:08:47;66.97;;;31.33;;
43048;SDS011;28673;44.412;11.918;2023-02-01T04:11:13;70.70;;;32.95;;
43048;SDS011;28673;44.412;11.918;2023-02-01T04:13:38;59.70;;;30.63;;
43048;SDS011;28673;44.412;11.918;2023-02-01T04:16:04;60.08;;;29.48;;
43048;SDS011;28673;44.412;11.918;2023-02-01T04:18:30;58.45;;;30.48;;
43048;SDS011;28673;44.412;11.918;2023-02-01T04:23:40;61.85;;;31.20;;
43048;SDS011;28673;44.412;11.918;2023-02-01T04:29:09;63.13;;;31.98;;
43048;SDS011;28673;44.412;11.918;2023-02-01T04:34:20;58.53;;;32.00;;
43048;SDS011;28673;44.412;11.918;2023-02-01T04:36:47;61.40;;;29.48;;
43048;SDS011;28673;44.412;11.918;2023-02-01T04:42:17;58.47;;;28.35;;
43048;SDS011;28673;44.412;11.918;2023-02-01T04:44:43;61.03;;;28.70;;
43048;SDS011;28673;44.412;11.918;2023-02-01T04:47:27;62.78;;;28.58;;
43048;SDS011;28673;44.412;11.918;2023-02-01T04:49:52;68.28;;;31.08;;
43048;SDS011;28673;44.412;11.918;2023-02-01T04:52:37;60.20;;;29.42;;
43048;SDS011;28673;44.412;11.918;2023-02-01T04:55:21;54.75;;;27.85;;
43048;SDS011;28673;44.412;11.918;2023-02-01T04:58:05;60.47;;;29.20;;
43048;SDS011;28673;44.412;11.918;2023-02-01T05:00:50;55.05;;;27.70;;
43048;SDS011;28673;44.412;11.918;2023-02-01T05:03:16;57.22;;;28.13;;
43048;SDS011;28673;44.412;11.918;2023-02-01T05:05:42;65.70;;;30.73;;
43048;SDS011;28673;44.412;11.918;2023-02-01T05:08:08;53.65;;;30.92;;
43048;SDS011;28673;44.412;11.918;2023-02-01T05:10:34;64.57;;;31.13;;
43048;SDS011;28673;44.412;11.918;2023-02-01T05:13:38;61.42;;;31.48;;
43048;SDS011;28673;44.412;11.918;2023-02-01T05:16:16;58.88;;;30.85;;
43048;SDS011;28673;44.412;11.918;2023-02-01T05:18:42;62.78;;;31.65;;
43048;SDS011;28673;44.412;11.918;2023-02-01T05:24:11;56.92;;;29.23;;
43048;SDS011;28673;44.412;11.918;2023-02-01T05:26:55;63.25;;;29.67;;
43048;SDS011;28673;44.412;11.918;2023-02-01T05:29:40;62.05;;;31.40;;
43048;SDS011;28673;44.412;11.918;2023-02-01T05:32:06;56.92;;;28.13;;
43048;SDS011;28673;44.412;11.918;2023-02-01T05:34:50;59.83;;;29.40;;
43048;SDS011;28673;44.412;11.918;2023-02-01T05:37:16;64.47;;;31.17;;
43048;SDS011;28673;44.412;11.918;2023-02-01T05:39:42;51.63;;;27.00;;
43048;SDS011;28673;44.412;11.918;2023-02-01T05:42:07;58.22;;;29.67;;
43048;SDS011;28673;44.412;11.918;2023-02-01T05:44:33;56.55;;;28.85;;
43048;SDS011;28673;44.412;11.918;2023-02-01T05:47:18;60.15;;;28.90;;
43048;SDS011;28673;44.412;11.918;2023-02-01T05:49:45;55.58;;;28.15;;
43048;SDS011;28673;44.412;11.918;2023-02-01T05:52:11;59.53;;;28.95;;
43048;SDS011;28673;44.412;11.918;2023-02-01T05:54:37;63.00;;;29.42;;
43048;SDS011;28673;44.412;11.918;2023-02-01T05:57:02;60.50;;;29.52;;
43048;SDS011;28673;44.412;11.918;2023-02-01T05:59:47;61.45;;;29.50;;
43048;SDS011;28673;44.412;11.918;2023-02-01T06:02:14;61.00;;;29.02;;
43048;SDS011;28673;44.412;11.918;2023-02-01T06:04:59;57.35;;;29.55;;
43048;SDS011;28673;44.412;11.918;2023-02-01T06:07:25;61.78;;;30.60;;
43048;SDS011;28673;44.412;11.918;2023-02-01T06:12:35;55.88;;;27.95;;
43048;SDS011;28673;44.412;11.918;2023-02-01T06:15:20;56.63;;;29.58;;
43048;SDS011;28673;44.412;11.918;2023-02-01T06:17:45;65.13;;;29.90;;
43048;SDS011;28673;44.412;11.918;2023-02-01T06:26:20;57.47;;;30.58;;
43048;SDS011;28673;44.412;11.918;2023-02-01T06:28:46;56.42;;;31.23;;
43048;SDS011;28673;44.412;11.918;2023-02-01T06:31:11;58.33;;;29.23;;
43048;SDS011;28673;44.412;11.918;2023-02-01T06:33:37;66.32;;;31.45;;
43048;SDS011;28673;44.412;11.918;2023-02-01T06:36:22;62.83;;;31.63;;
43048;SDS011;28673;44.412;11.918;2023-02-01T06:39:07;70.00;;;32.10;;
43048;SDS011;28673;44.412;11.918;2023-02-01T06:41:33;75.72;;;34.97;;
43048;SDS011;28673;44.412;11.918;2023-02-01T06:43:59;65.75;;;32.47;;
43048;SDS011;28673;44.412;11.918;2023-02-01T06:46:44;66.03;;;31.25;;
43048;SDS011;28673;44.412;11.918;2023-02-01T06:51:54;62.03;;;31.58;;
43048;SDS011;28673;44.412;11.918;2023-02-01T06:54:20;72.85;;;34.35;;
43048;SDS011;28673;44.412;11.918;2023-02-01T06:57:05;68.40;;;35.67;;
43048;SDS011;28673;44.412;11.918;2023-02-01T06:59:31;67.75;;;34.58;;
43048;SDS011;28673;44.412;11.918;2023-02-01T07:01:57;67.10;;;33.03;;
43048;SDS011;28673;44.412;11.918;2023-02-01T07:04:41;67.50;;;32.03;;
43048;SDS011;28673;44.412;11.918;2023-02-01T07:07:44;65.60;;;30.88;;
43048;SDS011;28673;44.412;11.918;2023-02-01T07:10:10;64.55;;;33.15;;
43048;SDS011;28673;44.412;11.918;2023-02-01T07:12:36;66.93;;;33.85;;
43048;SDS011;28673;44.412;11.918;2023-02-01T07:15:20;64.28;;;31.08;;
43048;SDS011;28673;44.412;11.918;2023-02-01T07:20:31;56.92;;;31.08;;
43048;SDS011;28673;44.412;11.918;2023-02-01T07:22:57;62.08;;;30.38;;
43048;SDS011;28673;44.412;11.918;2023-02-01T07:25:23;63.80;;;32.13;;
43048;SDS011;28673;44.412;11.918;2023-02-01T07:27:49;65.47;;;33.58;;
43048;SDS011;28673;44.412;11.918;2023-02-01T07:30:15;66.55;;;33.00;;
43048;SDS011;28673;44.412;11.918;2023-02-01T07:32:41;78.90;;;36.63;;
43048;SDS011;28673;44.412;11.918;2023-02-01T07:35:07;62.75;;;31.98;;
43048;SDS011;28673;44.412;11.918;2023-02-01T07:37:33;64.82;;;32.60;;
43048;SDS011;28673;44.412;11.918;2023-02-01T07:39:59;64.60;;;33.22;;
43048;SDS011;28673;44.412;11.918;2023-02-01T07:42:43;58.75;;;34.45;;
43048;SDS011;28673;44.412;11.918;2023-02-01T07:45:09;64.35;;;32.75;;
43048;SDS011;28673;44.412;11.918;2023-02-01T07:47:54;69.80;;;33.20;;
43048;SDS011;28673;44.412;11.918;2023-02-01T07:53:28;73.82;;;35.47;;
43048;SDS011;28673;44.412;11.918;2023-02-01T07:55:56;74.22;;;39.22;;
43048;SDS011;28673;44.412;11.918;2023-02-01T07:58:22;67.47;;;35.05;;
43048;SDS011;28673;44.412;11.918;2023-02-01T08:00:49;71.88;;;36.05;;
43048;SDS011;28673;44.412;11.918;2023-02-01T08:03:53;66.25;;;32.65;;
43048;SDS011;28673;44.412;11.918;2023-02-01T08:06:21;62.17;;;33.22;;
43048;SDS011;28673;44.412;11.918;2023-02-01T08:08:48;59.63;;;31.67;;
43048;SDS011;28673;44.412;11.918;2023-02-01T08:11:33;68.22;;;32.75;;
43048;SDS011;28673;44.412;11.918;2023-02-01T08:17:05;51.58;;;27.77;;
43048;SDS011;28673;44.412;11.918;2023-02-01T08:19:30;62.25;;;33.70;;
43048;SDS011;28673;44.412;11.918;2023-02-01T08:21:56;61.58;;;30.35;;
43048;SDS011;28673;44.412;11.918;2023-02-01T08:24:24;68.88;;;34.63;;
43048;SDS011;28673;44.412;11.918;2023-02-01T08:26:50;59.70;;;33.92;;
43048;SDS011;28673;44.412;11.918;2023-02-01T08:29:16;59.33;;;31.00;;
43048;SDS011;28673;44.412;11.918;2023-02-01T08:31:42;68.63;;;32.55;;
43048;SDS011;28673;44.412;11.918;2023-02-01T08:34:26;57.97;;;31.75;;
43048;SDS011;28673;44.412;11.918;2023-02-01T08:36:53;61.90;;;31.60;;
43048;SDS011;28673;44.412;11.918;2023-02-01T08:39:25;59.72;;;33.38;;
43048;SDS011;28673;44.412;11.918;2023-02-01T08:41:51;66.07;;;34.85;;
43048;SDS011;28673;44.412;11.918;2023-02-01T08:44:36;61.47;;;33.78;;
43048;SDS011;28673;44.412;11.918;2023-02-01T08:47:02;73.15;;;36.78;;
43048;SDS011;28673;44.412;11.918;2023-02-01T08:52:31;78.57;;;40.05;;
43048;SDS011;28673;44.412;11.918;2023-02-01T08:55:15;73.00;;;39.78;;
43048;SDS011;28673;44.412;11.918;2023-02-01T08:57:42;91.53;;;46.45;;
43048;SDS011;28673;44.412;11.918;2023-02-01T09:00:26;91.18;;;47.40;;
43048;SDS011;28673;44.412;11.918;2023-02-01T09:02:52;90.90;;;47.13;;
43048;SDS011;28673;44.412;11.918;2023-02-01T09:05:18;99.88;;;51.15;;
43048;SDS011;28673;44.412;11.918;2023-02-01T09:07:47;101.90;;;56.25;;
43048;SDS011;28673;44.412;11.918;2023-02-01T09:10:13;90.60;;;52.03;;
43048;SDS011;28673;44.412;11.918;2023-02-01T09:12:39;116.95;;;57.97;;
43048;SDS011;28673;44.412;11.918;2023-02-01T09:18:08;99.03;;;53.05;;
43048;SDS011;28673;44.412;11.918;2023-02-01T09:20:36;97.43;;;53.35;;
43048;SDS011;28673;44.412;11.918;2023-02-01T09:23:02;111.72;;;59.83;;
43048;SDS011;28673;44.412;11.918;2023-02-01T09:25:28;107.55;;;56.47;;
43048;SDS011;28673;44.412;11.918;2023-02-01T09:27:54;109.65;;;60.47;;
43048;SDS011;28673;44.412;11.918;2023-02-01T09:30:38;124.53;;;62.75;;
43048;SDS011;28673;44.412;11.918;2023-02-01T09:33:04;115.25;;;64.95;;
43048;SDS011;28673;44.412;11.918;2023-02-01T09:38:14;127.93;;;65.75;;
43048;SDS011;28673;44.412;11.918;2023-02-01T09:40:41;124.30;;;67.47;;
43048;SDS011;28673;44.412;11.918;2023-02-01T09:48:49;137.63;;;71.28;;
43048;SDS011;28673;44.412;11.918;2023-02-01T09:51:20;129.13;;;73.43;;
43048;SDS011;28673;44.412;11.918;2023-02-01T09:57:11;139.25;;;73.93;;
43048;SDS011;28673;44.412;11.918;2023-02-01T10:00:04;135.50;;;69.18;;
43048;SDS011;28673;44.412;11.918;2023-02-01T10:02:57;131.65;;;73.63;;
43048;SDS011;28673;44.412;11.918;2023-02-01T10:08:10;130.98;;;72.50;;
43048;SDS011;28673;44.412;11.918;2023-02-01T10:10:45;138.68;;;68.95;;
43048;SDS011;28673;44.412;11.918;2023-02-01T10:13:41;129.98;;;72.32;;
43048;SDS011;28673;44.412;11.918;2023-02-01T10:16:21;121.50;;;66.40;;
43048;SDS011;28673;44.412;11.918;2023-02-01T10:22:50;123.50;;;65.75;;
43048;SDS011;28673;44.412;11.918;2023-02-01T10:28:00;120.32;;;65.30;;
43048;SDS011;28673;44.412;11.918;2023-02-01T10:30:29;112.88;;;66.40;;
43048;SDS011;28673;44.412;11.918;2023-02-01T10:33:25;116.85;;;63.78;;
43048;SDS011;28673;44.412;11.918;2023-02-01T10:35:58;102.22;;;57.08;;
43048;SDS011;28673;44.412;11.918;2023-02-01T10:38:42;112.47;;;61.05;;
43048;SDS011;28673;44.412;11.918;2023-02-01T10:43:58;127.47;;;71.45;;
43048;SDS011;28673;44.412;11.918;2023-02-01T10:46:29;126.75;;;73.00;;
43048;SDS011;28673;44.412;11.918;2023-02-01T10:48:56;122.15;;;71.30;;
43048;SDS011;28673;44.412;11.918;2023-02-01T10:51:30;156.95;;;80.88;;
43048;SDS011;28673;44.412;11.918;2023-02-01T10:54:20;119.18;;;67.70;;
43048;SDS011;28673;44.412;11.918;2023-02-01T10:56:56;115.43;;;66.97;;
43048;SDS011;28673;44.412;11.918;2023-02-01T10:59:40;114.43;;;64.10;;
43048;SDS011;28673;44.412;11.918;2023-02-01T11:05:07;126.68;;;68.75;;
43048;SDS011;28673;44.412;11.918;2023-02-01T11:11:02;111.93;;;64.55;;
43048;SDS011;28673;44.412;11.918;2023-02-01T11:13:32;108.55;;;62.42;;
43048;SDS011;28673;44.412;11.918;2023-02-01T11:18:30;108.13;;;62.47;;
43048;SDS011;28673;44.412;11.918;2023-02-01T11:21:00;108.70;;;62.03;;
43048;SDS011;28673;44.412;11.918;2023-02-01T11:23:27;105.68;;;61.03;;
43048;SDS011;28673;44.412;11.918;2023-02-01T11:25:57;101.55;;;59.13;;
43048;SDS011;28673;44.412;11.918;2023-02-01T11:29:03;105.43;;;58.25;;
43048;SDS011;28673;44.412;11.918;2023-02-01T11:40:22;101.97;;;57.97;;
43048;SDS011;28673;44.412;11.918;2023-02-01T11:45:35;103.68;;;56.08;;
43048;SDS011;28673;44.412;11.918;2023-02-01T11:48:07;92.82;;;54.17;;
43048;SDS011;28673;44.412;11.918;2023-02-01T11:56:56;81.68;;;47.25;;
43048;SDS011;28673;44.412;11.918;2023-02-01T12:03:04;82.07;;;49.47;;
43048;SDS011;28673;44.412;11.918;2023-02-01T12:05:42;97.57;;;48.78;;
43048;SDS011;28673;44.412;11.918;2023-02-01T12:25:19;79.50;;;43.25;;
43048;SDS011;28673;44.412;11.918;2023-02-01T12:28:03;82.40;;;43.22;;
43048;SDS011;28673;44.412;11.918;2023-02-01T12:30:40;80.03;;;41.22;;
43048;SDS011;28673;44.412;11.918;2023-02-01T12:33:13;74.40;;;42.13;;
43048;SDS011;28673;44.412;11.918;2023-02-01T12:36:01;70.60;;;40.17;;
43048;SDS011;28673;44.412;11.918;2023-02-01T12:50:02;67.28;;;39.10;;
43048;SDS011;28673;44.412;11.918;2023-02-01T12:52:51;69.38;;;40.05;;
43048;SDS011;28673;44.412;11.918;2023-02-01T12:55:23;68.03;;;40.47;;
43048;SDS011;28673;44.412;11.918;2023-02-01T13:00:35;70.43;;;38.75;;
43048;SDS011;28673;44.412;11.918;2023-02-01T13:05:50;64.57;;;37.75;;
43048;SDS011;28673;44.412;11.918;2023-02-01T13:11:13;66.43;;;38.00;;
43048;SDS011;28673;44.412;11.918;2023-02-01T13:16:47;51.95;;;31.10;;
43048;SDS011;28673;44.412;11.918;2023-02-01T13:19:17;54.63;;;31.73;;
43048;SDS011;28673;44.412;11.918;2023-02-01T13:21:51;50.63;;;29.42;;
43048;SDS011;28673;44.412;11.918;2023-02-01T13:30:14;49.00;;;28.45;;
43048;SDS011;28673;44.412;11.918;2023-02-01T13:35:55;52.47;;;28.83;;
43048;SDS011;28673;44.412;11.918;2023-02-01T13:42:03;49.55;;;27.75;;
43048;SDS011;28673;44.412;11.918;2023-02-01T13:44:58;46.85;;;27.08;;
43048;SDS011;28673;44.412;11.918;2023-02-01T13:47:28;47.20;;;26.10;;
43048;SDS011;28673;44.412;11.918;2023-02-01T13:49:55;46.85;;;24.08;;
43048;SDS011;28673;44.412;11.918;2023-02-01T13:52:43;41.90;;;23.02;;
43048;SDS011;28673;44.412;11.918;2023-02-01T13:55:33;40.55;;;23.45;;
43048;SDS011;28673;44.412;11.918;2023-02-01T14:04:05;44.60;;;23.95;;
43048;SDS011;28673;44.412;11.918;2023-02-01T14:07:16;40.83;;;24.83;;
43048;SDS011;28673;44.412;11.918;2023-02-01T14:09:46;38.35;;;23.77;;
43048;SDS011;28673;44.412;11.918;2023-02-01T14:15:19;40.63;;;22.95;;
43048;SDS011;28673;44.412;11.918;2023-02-01T14:18:48;39.45;;;22.52;;
43048;SDS011;28673;44.412;11.918;2023-02-01T14:26:54;44.83;;;19.85;;
43048;SDS011;28673;44.412;11.918;2023-02-01T14:29:35;35.65;;;18.52;;
43048;SDS011;28673;44.412;11.918;2023-02-01T14:32:24;40.53;;;22.63;;
43048;SDS011;28673;44.412;11.918;2023-02-01T14:34:56;41.95;;;20.90;;
43048;SDS011;28673;44.412;11.918;2023-02-01T14:40:29;34.13;;;20.50;;
43048;SDS011;28673;44.412;11.918;2023-02-01T14:50:36;34.25;;;18.27;;
43048;SDS011;28673;44.412;11.918;2023-02-01T14:53:25;67.35;;;37.75;;
43048;SDS011;28673;44.412;11.918;2023-02-01T14:56:06;64.93;;;30.38;;
43048;SDS011;28673;44.412;11.918;2023-02-01T14:58:42;38.35;;;19.60;;
43048;SDS011;28673;44.412;11.918;2023-02-01T15:01:27;44.85;;;23.02;;
43048;SDS011;28673;44.412;11.918;2023-02-01T15:07:05;42.22;;;20.05;;
43048;SDS011;28673;44.412;11.918;2023-02-01T15:15:14;19.52;;;10.68;;
43048;SDS011;28673;44.412;11.918;2023-02-01T15:20:24;21.83;;;11.45;;
43048;SDS011;28673;44.412;11.918;2023-02-01T15:29:02;20.45;;;11.18;;
43048;SDS011;28673;44.412;11.918;2023-02-01T15:34:15;37.38;;;16.10;;
43048;SDS011;28673;44.412;11.918;2023-02-01T15:36:42;24.73;;;14.55;;
43048;SDS011;28673;44.412;11.918;2023-02-01T15:42:27;21.75;;;11.45;;
43048;SDS011;28673;44.412;11.918;2023-02-01T15:47:27;26.25;;;13.90;;
43048;SDS011;28673;44.412;11.918;2023-02-01T15:50:12;21.67;;;13.43;;
43048;SDS011;28673;44.412;11.918;2023-02-01T15:58:04;27.70;;;15.45;;
43048;SDS011;28673;44.412;11.918;2023-02-01T16:03:37;32.88;;;15.77;;
43048;SDS011;28673;44.412;11.918;2023-02-01T16:06:12;27.23;;;16.83;;
43048;SDS011;28673;44.412;11.918;2023-02-01T16:13:56;23.27;;;14.65;;
43048;SDS011;28673;44.412;11.918;2023-02-01T16:16:23;39.58;;;16.35;;
43048;SDS011;28673;44.412;11.918;2023-02-01T16:18:49;42.20;;;20.58;;
43048;SDS011;28673;44.412;11.918;2023-02-01T16:24:00;42.58;;;17.27;;
43048;SDS011;28673;44.412;11.918;2023-02-01T16:26:29;32.75;;;16.27;;
43048;SDS011;28673;44.412;11.918;2023-02-01T16:28:58;23.77;;;13.82;;
43048;SDS011;28673;44.412;11.918;2023-02-01T16:31:28;35.58;;;16.52;;
43048;SDS011;28673;44.412;11.918;2023-02-01T16:33:56;33.47;;;15.93;;
43048;SDS011;28673;44.412;11.918;2023-02-01T16:36:40;34.50;;;18.27;;
43048;SDS011;28673;44.412;11.918;2023-02-01T16:39:15;36.45;;;21.15;;
43048;SDS011;28673;44.412;11.918;2023-02-01T16:41:59;39.33;;;20.33;;
43048;SDS011;28673;44.412;11.918;2023-02-01T16:44:25;39.97;;;21.92;;
43048;SDS011;28673;44.412;11.918;2023-02-01T16:46:51;49.65;;;22.00;;
43048;SDS011;28673;44.412;11.918;2023-02-01T16:49:21;35.97;;;19.77;;
43048;SDS011;28673;44.412;11.918;2023-02-01T16:51:51;47.13;;;22.73;;
43048;SDS011;28673;44.412;11.918;2023-02-01T16:57:07;44.42;;;22.15;;
43048;SDS011;28673;44.412;11.918;2023-02-01T16:59:59;43.33;;;19.52;;
43048;SDS011;28673;44.412;11.918;2023-02-01T17:02:29;39.22;;;20.38;;
43048;SDS011;28673;44.412;11.918;2023-02-01T17:04:56;34.90;;;19.08;;
43048;SDS011;28673;44.412;11.918;2023-02-01T17:07:21;43.08;;;17.98;;
43048;SDS011;28673;44.412;11.918;2023-02-01T17:09:47;38.60;;;18.05;;
43048;SDS011;28673;44.412;11.918;2023-02-01T17:12:20;39.97;;;18.38;;
43048;SDS011;28673;44.412;11.918;2023-02-01T17:14:49;46.60;;;24.58;;
43048;SDS011;28673;44.412;11.918;2023-02-01T17:20:04;36.78;;;19.35;;
43048;SDS011;28673;44.412;11.918;2023-02-01T17:22:31;44.45;;;22.92;;
43048;SDS011;28673;44.412;11.918;2023-02-01T17:24:57;46.22;;;24.25;;
43048;SDS011;28673;44.412;11.918;2023-02-01T17:27:43;45.78;;;24.55;;
43048;SDS011;28673;44.412;11.918;2023-02-01T17:30:10;50.17;;;27.52;;
43048;SDS011;28673;44.412;11.918;2023-02-01T17:32:56;54.30;;;28.90;;
43048;SDS011;28673;44.412;11.918;2023-02-01T17:35:24;40.72;;;23.88;;
43048;SDS011;28673;44.412;11.918;2023-02-01T17:37:51;51.70;;;25.67;;
43048;SDS011;28673;44.412;11.918;2023-02-01T17:40:55;48.38;;;23.08;;
43048;SDS011;28673;44.412;11.918;2023-02-01T17:43:23;39.42;;;23.05;;
43048;SDS011;28673;44.412;11.918;2023-02-01T17:48:17;45.35;;;23.52;;
43048;SDS011;28673;44.412;11.918;2023-02-01T17:51:03;45.28;;;23.70;;
43048;SDS011;28673;44.412;11.918;2023-02-01T17:53:30;51.15;;;25.23;;
43048;SDS011;28673;44.412;11.918;2023-02-01T17:58:44;53.25;;;27.75;;
43048;SDS011;28673;44.412;11.918;2023-02-01T18:01:28;48.58;;;25.27;;
43048;SDS011;28673;44.412;11.918;2023-02-01T18:03:54;46.53;;;25.63;;
43048;SDS011;28673;44.412;11.918;2023-02-01T18:06:21;46.30;;;22.50;;
43048;SDS011;28673;44.412;11.918;2023-02-01T18:08:48;50.85;;;21.92;;
43048;SDS011;28673;44.412;11.918;2023-02-01T18:11:33;45.00;;;24.35;;
43048;SDS011;28673;44.412;11.918;2023-02-01T18:17:03;62.50;;;34.38;;
43048;SDS011;28673;44.412;11.918;2023-02-01T18:19:30;60.22;;;31.52;;
43048;SDS011;28673;44.412;11.918;2023-02-01T18:21:56;75.53;;;40.05;;
43048;SDS011;28673;44.412;11.918;2023-02-01T18:24:22;55.72;;;32.20;;
43048;SDS011;28673;44.412;11.918;2023-02-01T18:26:49;62.90;;;35.97;;
43048;SDS011;28673;44.412;11.918;2023-02-01T18:29:16;59.92;;;33.33;;
43048;SDS011;28673;44.412;11.918;2023-02-01T18:31:45;81.55;;;42.72;;
43048;SDS011;28673;44.412;11.918;2023-02-01T18:34:16;67.38;;;36.15;;
43048;SDS011;28673;44.412;11.918;2023-02-01T18:39:31;66.38;;;35.65;;
43048;SDS011;28673;44.412;11.918;2023-02-01T18:41:57;58.50;;;34.28;;
43048;SDS011;28673;44.412;11.918;2023-02-01T18:44:23;56.17;;;32.65;;
43048;SDS011;28673;44.412;11.918;2023-02-01T18:46:49;52.75;;;31.42;;
43048;SDS011;28673;44.412;11.918;2023-02-01T18:49:15;57.75;;;31.65;;
43048;SDS011;28673;44.412;11.918;2023-02-01T18:51:43;68.88;;;33.13;;
43048;SDS011;28673;44.412;11.918;2023-02-01T18:54:10;59.13;;;31.63;;
43048;SDS011;28673;44.412;11.918;2023-02-01T18:56:36;61.67;;;33.95;;
43048;SDS011;28673;44.412;11.918;2023-02-01T18:59:02;63.83;;;33.88;;
43048;SDS011;28673;44.412;11.918;2023-02-01T19:01:28;69.90;;;37.35;;
43048;SDS011;28673;44.412;11.918;2023-02-01T19:03:54;70.13;;;36.83;;
43048;SDS011;28673;44.412;11.918;2023-02-01T19:06:21;73.40;;;38.00;;
43048;SDS011;28673;44.412;11.918;2023-02-01T19:09:05;87.65;;;41.72;;
43048;SDS011;28673;44.412;11.918;2023-02-01T19:11:31;85.88;;;42.80;;
43048;SDS011;28673;44.412;11.918;2023-02-01T19:13:57;79.57;;;44.45;;
43048;SDS011;28673;44.412;11.918;2023-02-01T19:16:41;69.03;;;38.15;;
43048;SDS011;28673;44.412;11.918;2023-02-01T19:19:07;75.70;;;37.92;;